Time;durP1;ratioP1;P1;durP2;ratioP2;P2;SDS_P1;SDS_P2;PMS_P1;PMS_P2;Temp;Humidity;BMP_temperature;BMP_pressure;BME280_temperature;BME280_humidity;BME280_pressure;Samples;Min_cycle;Max_cycle;Signal;HPM_P1;HPM_P2
2020/12/23 00:00:35;;;;;;;31.35;19.73;;;10.90;99.90;;;;;;5057619;28;20626;-82
2020/12/23 00:03:02;;;;;;;28.42;19.55;;;10.90;99.90;;;;;;5057546;28;20198;-83
2020/12/23 00:05:28;;;;;;;36.20;22.80;;;10.90;99.90;;;;;;5057750;28;20281;-84
2020/12/23 00:07:54;;;;;;;32.25;21.10;;;10.90;99.90;;;;;;5057457;28;20202;-81
2020/12/23 00:10:20;;;;;;;44.97;24.83;;;10.90;99.90;;;;;;5057770;28;20215;-81
2020/12/23 00:12:47;;;;;;;43.85;23.25;;;11.00;99.90;;;;;;5057503;28;20679;-82
2020/12/23 00:15:14;;;;;;;44.92;22.63;;;11.10;99.90;;;;;;5057930;28;20635;-82
2020/12/23 00:17:40;;;;;;;43.40;22.02;;;11.20;99.90;;;;;;5057499;28;20195;-83
2020/12/23 00:20:06;;;;;;;45.03;22.08;;;11.20;99.90;;;;;;5057309;28;20271;-83
2020/12/23 00:22:33;;;;;;;39.00;20.80;;;11.20;99.90;;;;;;5057470;28;20198;-82
2020/12/23 00:24:59;;;;;;;40.88;21.65;;;11.30;99.90;;;;;;5057494;28;20187;-82
2020/12/23 00:27:25;;;;;;;38.72;19.70;;;11.40;99.90;;;;;;5057744;28;20202;-82
2020/12/23 00:29:53;;;;;;;38.88;20.77;;;11.40;99.90;;;;;;5056940;28;20226;-81
2020/12/23 00:32:20;;;;;;;42.45;20.40;;;11.40;99.90;;;;;;5058007;28;20599;-80
2020/12/23 00:34:46;;;;;;;39.58;21.23;;;11.50;99.90;;;;;;5057981;28;20619;-81
2020/12/23 00:37:12;;;;;;;41.08;19.95;;;11.50;99.90;;;;;;5057907;28;20198;-81
2020/12/23 00:39:39;;;;;;;38.13;20.67;;;11.50;99.90;;;;;;5061424;28;20215;-80
2020/12/23 00:42:05;;;;;;;33.42;20.58;;;11.60;99.90;;;;;;5061425;28;20611;-83
2020/12/23 00:44:32;;;;;;;36.22;20.15;;;11.60;99.90;;;;;;5061396;28;20206;-81
2020/12/23 00:46:59;;;;;;;42.17;20.15;;;11.50;99.90;;;;;;5060266;28;20258;-82
2020/12/23 00:49:25;;;;;;;36.30;19.67;;;11.50;99.90;;;;;;5060969;28;20215;-81
2020/12/23 00:51:51;;;;;;;47.50;20.98;;;11.60;99.90;;;;;;5060606;28;20223;-82
2020/12/23 00:54:18;;;;;;;41.50;20.92;;;11.50;99.90;;;;;;5060441;28;20194;-82
2020/12/23 00:56:44;;;;;;;37.60;20.30;;;11.50;99.90;;;;;;5060789;28;20210;-81
2020/12/23 00:59:10;;;;;;;37.92;19.95;;;11.50;99.90;;;;;;5059528;28;20211;-81
2020/12/23 01:01:37;;;;;;;46.15;20.52;;;11.60;99.90;;;;;;5060732;28;20269;-80
2020/12/23 01:04:04;;;;;;;45.53;20.88;;;11.60;99.90;;;;;;5060672;28;20225;-82
2020/12/23 01:06:30;;;;;;;38.47;20.90;;;11.50;99.90;;;;;;5059971;28;20205;-81
2020/12/23 01:08:56;;;;;;;31.95;17.58;;;11.50;99.90;;;;;;5060558;28;20225;-81
2020/12/23 01:11:23;;;;;;;31.85;17.10;;;11.50;99.90;;;;;;5060078;28;20198;-81
2020/12/23 01:13:49;;;;;;;32.83;18.50;;;11.50;99.90;;;;;;5059848;28;20194;-80
2020/12/23 01:16:20;;;;;;;31.73;18.10;;;11.50;99.90;;;;;;5059228;28;20218;-80
2020/12/23 01:18:46;;;;;;;34.50;19.80;;;11.50;99.90;;;;;;5059320;28;20712;-82
2020/12/23 01:21:15;;;;;;;34.58;19.20;;;11.50;99.90;;;;;;5059497;28;20285;-82
2020/12/23 01:23:42;;;;;;;36.72;19.42;;;11.50;99.90;;;;;;5060221;28;20214;-81
2020/12/23 01:26:09;;;;;;;37.20;20.35;;;11.50;99.90;;;;;;5060016;28;20193;-80
2020/12/23 01:28:38;;;;;;;38.72;20.27;;;11.50;99.90;;;;;;5060011;28;20299;-82
2020/12/23 01:31:05;;;;;;;39.10;21.23;;;11.50;99.90;;;;;;5060224;28;20186;-81
2020/12/23 01:33:31;;;;;;;39.33;22.65;;;11.60;99.90;;;;;;5059236;28;20198;-83
2020/12/23 01:35:58;;;;;;;44.47;23.15;;;11.50;99.90;;;;;;5058732;28;20221;-83
2020/12/23 01:38:25;;;;;;;39.03;19.95;;;11.50;99.90;;;;;;5059699;28;20228;-80
2020/12/23 01:40:56;;;;;;;45.88;22.80;;;11.50;99.90;;;;;;5059951;28;20208;-81
2020/12/23 01:43:23;;;;;;;43.75;21.10;;;11.50;99.90;;;;;;5059508;28;20224;-80
2020/12/23 01:45:49;;;;;;;43.97;22.67;;;11.50;99.90;;;;;;5058869;28;20197;-79
2020/12/23 01:48:20;;;;;;;44.03;22.27;;;11.50;99.90;;;;;;5058780;28;20309;-79
2020/12/23 01:50:47;;;;;;;43.63;23.25;;;11.50;99.90;;;;;;5059400;28;20288;-83
2020/12/23 01:53:15;;;;;;;44.42;23.80;;;11.50;99.90;;;;;;5058920;28;20667;-82
2020/12/23 01:55:44;;;;;;;46.28;22.30;;;11.50;99.90;;;;;;5058817;28;20229;-81
2020/12/23 01:58:11;;;;;;;44.33;21.80;;;11.50;99.90;;;;;;5058105;28;20800;-81
2020/12/23 02:00:37;;;;;;;53.88;23.45;;;11.50;99.90;;;;;;5041217;28;20214;-82
2020/12/23 02:03:05;;;;;;;47.17;22.20;;;11.50;99.90;;;;;;5058828;28;20205;-81
2020/12/23 02:05:31;;;;;;;46.13;22.17;;;11.50;99.90;;;;;;5058790;28;20197;-83
2020/12/23 02:07:58;;;;;;;51.72;23.60;;;11.50;99.90;;;;;;5058170;28;20286;-80
2020/12/23 02:10:25;;;;;;;46.38;22.92;;;11.50;99.90;;;;;;5058757;28;20215;-80
2020/12/23 02:12:52;;;;;;;45.42;22.45;;;11.50;99.90;;;;;;5058857;28;20194;-81
2020/12/23 02:15:19;;;;;;;43.63;20.33;;;11.40;99.90;;;;;;5058863;28;20221;-81
2020/12/23 02:17:46;;;;;;;36.55;20.60;;;11.50;99.90;;;;;;5058236;28;20203;-81
2020/12/23 02:20:14;;;;;;;35.10;18.23;;;11.50;99.90;;;;;;5058354;28;20228;-82
2020/12/23 02:22:41;;;;;;;36.20;18.25;;;11.40;99.90;;;;;;5059844;28;20201;-80
2020/12/23 02:25:08;;;;;;;36.40;19.17;;;11.40;99.90;;;;;;5059901;28;20663;-81
2020/12/23 02:27:35;;;;;;;40.47;19.40;;;11.50;99.90;;;;;;5059691;28;20211;-81
2020/12/23 02:30:03;;;;;;;38.38;17.95;;;11.40;99.90;;;;;;5058692;28;20264;-81
2020/12/23 02:32:30;;;;;;;34.50;17.20;;;11.40;99.90;;;;;;5070895;28;20198;-83
2020/12/23 02:34:56;;;;;;;36.13;18.55;;;11.50;99.90;;;;;;5070354;28;20208;-82
2020/12/23 02:37:23;;;;;;;45.30;19.92;;;11.50;99.90;;;;;;5059580;28;20319;-81
2020/12/23 02:39:51;;;;;;;42.08;19.20;;;11.50;99.90;;;;;;5060776;28;20241;-82
2020/12/23 02:42:19;;;;;;;38.25;22.50;;;11.50;99.90;;;;;;5060732;28;20262;-83
2020/12/23 02:44:47;;;;;;;36.60;19.17;;;11.50;99.90;;;;;;5060255;28;20294;-82
2020/12/23 02:47:15;;;;;;;42.15;20.58;;;11.50;99.90;;;;;;5061599;28;20289;-80
2020/12/23 02:49:42;;;;;;;39.20;21.42;;;11.50;99.90;;;;;;5057856;28;20604;-81
2020/12/23 02:52:09;;;;;;;40.95;21.45;;;11.50;99.90;;;;;;5039935;28;20261;-82
2020/12/23 02:54:36;;;;;;;45.53;22.02;;;11.50;99.90;;;;;;5058468;28;20217;-80
2020/12/23 02:57:04;;;;;;;42.17;20.77;;;11.50;99.90;;;;;;5058583;28;20215;-82
2020/12/23 02:59:30;;;;;;;46.15;22.73;;;11.60;99.90;;;;;;5057476;28;20305;-80
2020/12/23 03:01:57;;;;;;;40.08;20.08;;;11.60;99.90;;;;;;5049646;28;20875;-79
2020/12/23 03:04:23;;;;;;;41.88;21.50;;;11.60;99.90;;;;;;5065934;28;20194;-80
2020/12/23 03:06:50;;;;;;;42.38;23.73;;;11.60;99.90;;;;;;5060285;28;20202;-81
2020/12/23 03:09:16;;;;;;;39.15;20.77;;;11.60;99.90;;;;;;5059880;28;20584;-79
2020/12/23 03:11:43;;;;;;;49.95;22.58;;;11.70;99.90;;;;;;5060043;28;20209;-83
2020/12/23 03:14:10;;;;;;;42.22;19.30;;;11.60;99.90;;;;;;5060053;28;20209;-82
2020/12/23 03:16:36;;;;;;;41.17;22.88;;;11.70;99.90;;;;;;5058924;28;20243;-82
2020/12/23 03:19:03;;;;;;;45.42;20.95;;;11.70;99.90;;;;;;5060737;28;20217;-84
2020/12/23 03:21:30;;;;;;;40.65;21.65;;;11.70;99.90;;;;;;5059305;28;20205;-85
2020/12/23 03:23:56;;;;;;;33.63;22.75;;;11.70;99.90;;;;;;5059593;28;20195;-84
2020/12/23 03:26:23;;;;;;;41.22;22.17;;;11.80;99.90;;;;;;5058703;28;20190;-85
2020/12/23 03:28:49;;;;;;;47.33;23.45;;;11.80;99.90;;;;;;5058758;28;20302;-84
2020/12/23 03:31:16;;;;;;;45.88;22.58;;;11.80;99.90;;;;;;5051775;28;20187;-84
2020/12/23 03:33:43;;;;;;;41.67;21.50;;;11.80;99.90;;;;;;5059442;28;20209;-83
2020/12/23 03:36:09;;;;;;;41.50;21.55;;;11.80;99.90;;;;;;5059293;28;20214;-83
2020/12/23 03:38:36;;;;;;;36.35;22.73;;;11.80;99.90;;;;;;5059670;28;20225;-83
2020/12/23 03:41:02;;;;;;;40.45;22.85;;;11.80;99.90;;;;;;5059617;28;20210;-83
2020/12/23 03:43:29;;;;;;;41.13;21.50;;;11.80;99.90;;;;;;5059537;28;20194;-82
2020/12/23 03:45:55;;;;;;;32.17;21.27;;;11.80;99.90;;;;;;5059126;28;20628;-83
2020/12/23 03:48:22;;;;;;;29.80;19.30;;;11.80;99.90;;;;;;5058951;28;20198;-83
2020/12/23 03:50:49;;;;;;;38.47;21.83;;;11.80;99.90;;;;;;5060032;28;20253;-83
2020/12/23 03:53:15;;;;;;;31.25;20.73;;;11.70;99.90;;;;;;5059535;28;20195;-82
2020/12/23 03:55:41;;;;;;;30.70;19.67;;;11.70;99.90;;;;;;5059554;28;20276;-83
2020/12/23 03:58:08;;;;;;;36.55;19.55;;;11.70;99.90;;;;;;5061896;28;20201;-82
2020/12/23 04:00:34;;;;;;;3.63;0.50;;;11.60;99.90;;;;;;5057878;28;20213;-83
2020/12/23 04:03:00;;;;;;;35.45;19.98;;;11.60;99.90;;;;;;5058288;28;20191;-83
2020/12/23 04:05:27;;;;;;;28.73;19.52;;;11.60;99.90;;;;;;5058153;28;20449;-82
2020/12/23 04:07:54;;;;;;;26.13;18.60;;;11.60;99.90;;;;;;5058058;28;20198;-83
2020/12/23 04:10:20;;;;;;;30.02;18.73;;;11.60;99.90;;;;;;5057788;28;20228;-82
2020/12/23 04:12:46;;;;;;;33.50;20.75;;;11.50;99.90;;;;;;5060483;28;20221;-81
2020/12/23 04:15:13;;;;;;;76.28;68.63;;;11.50;99.90;;;;;;5059807;28;20690;-82
2020/12/23 04:17:39;;;;;;;31.73;18.80;;;11.50;99.90;;;;;;5060438;28;20234;-80
2020/12/23 04:20:06;;;;;;;34.28;20.83;;;11.50;99.90;;;;;;5060576;28;20649;-82
2020/12/23 04:22:34;;;;;;;35.95;19.63;;;11.50;99.90;;;;;;5059170;28;20202;-81
2020/12/23 04:25:03;;;;;;;31.05;17.55;;;11.50;99.90;;;;;;5058263;28;20597;-80
2020/12/23 04:27:29;;;;;;;27.55;17.02;;;11.50;99.90;;;;;;5058574;28;20191;-79
2020/12/23 04:29:55;;;;;;;32.80;17.35;;;11.50;99.90;;;;;;5057520;28;20232;-81
2020/12/23 04:32:22;;;;;;;31.13;18.15;;;11.50;99.90;;;;;;5058419;28;20204;-79
2020/12/23 04:34:49;;;;;;;35.90;19.00;;;11.50;99.90;;;;;;5058116;28;20195;-80
2020/12/23 04:37:15;;;;;;;27.92;16.67;;;11.50;99.90;;;;;;5057898;28;20622;-81
2020/12/23 04:39:42;;;;;;;31.70;18.05;;;11.40;99.90;;;;;;5058155;28;20218;-80
2020/12/23 04:42:09;;;;;;;30.35;17.95;;;11.40;99.90;;;;;;5059267;28;20199;-81
2020/12/23 04:44:36;;;;;;;30.70;16.75;;;11.40;99.90;;;;;;5059592;28;20205;-80
2020/12/23 04:47:04;;;;;;;33.13;16.90;;;11.40;99.90;;;;;;5058966;28;20217;-81
2020/12/23 04:49:36;;;;;;;30.80;17.05;;;11.50;99.90;;;;;;5059790;28;20223;-81
2020/12/23 04:52:05;;;;;;;37.65;19.38;;;11.50;99.90;;;;;;5059696;28;20201;-82
2020/12/23 04:54:31;;;;;;;32.90;18.58;;;11.40;99.90;;;;;;5059194;28;20202;-82
2020/12/23 04:56:59;;;;;;;31.52;16.70;;;11.50;99.90;;;;;;5059366;28;20222;-82
2020/12/23 04:59:25;;;;;;;32.88;17.95;;;11.50;99.90;;;;;;5059213;28;20282;-80
2020/12/23 05:01:52;;;;;;;40.58;18.83;;;11.40;99.90;;;;;;5059099;28;20206;-81
2020/12/23 05:04:18;;;;;;;36.20;18.55;;;11.40;99.90;;;;;;5059199;28;20233;-79
2020/12/23 05:06:44;;;;;;;28.77;17.45;;;11.40;99.90;;;;;;5059408;28;20194;-81
2020/12/23 05:09:10;;;;;;;34.58;18.95;;;11.40;99.90;;;;;;5061271;28;20214;-81
2020/12/23 05:11:37;;;;;;;37.78;19.10;;;11.40;99.90;;;;;;5056545;28;20191;-80
2020/12/23 05:14:10;;;;;;;33.22;18.67;;;11.40;99.90;;;;;;5061392;28;20300;-82
2020/12/23 05:16:37;;;;;;;31.55;17.83;;;11.40;99.90;;;;;;5057438;28;20226;-80
2020/12/23 05:19:03;;;;;;;30.60;17.27;;;11.40;99.90;;;;;;5060136;28;20324;-80
2020/12/23 05:21:30;;;;;;;27.75;15.88;;;11.40;99.90;;;;;;5061188;28;20194;-80
2020/12/23 05:23:57;;;;;;;31.30;16.42;;;11.40;99.90;;;;;;5060428;28;20670;-80
2020/12/23 05:26:25;;;;;;;257.20;234.63;;;11.40;99.90;;;;;;5060459;28;20196;-81
2020/12/23 05:28:53;;;;;;;20.70;10.75;;;11.40;99.90;;;;;;5058728;28;20244;-81
2020/12/23 05:31:21;;;;;;;26.48;13.80;;;11.40;99.90;;;;;;5059051;28;20194;-81
2020/12/23 05:33:49;;;;;;;17.20;10.90;;;11.40;99.90;;;;;;5059928;28;20198;-81
2020/12/23 05:36:17;;;;;;;14.43;9.18;;;11.30;99.90;;;;;;5059552;28;20217;-81
2020/12/23 05:38:44;;;;;;;19.10;10.48;;;11.30;99.90;;;;;;5059956;28;20292;-81
2020/12/23 05:41:12;;;;;;;19.48;12.57;;;11.30;99.90;;;;;;5060215;28;20198;-80
2020/12/23 05:43:39;;;;;;;18.40;11.75;;;11.40;99.90;;;;;;5059829;28;20240;-81
2020/12/23 05:46:07;;;;;;;19.13;10.77;;;11.40;99.90;;;;;;5059866;28;20202;-81
2020/12/23 05:48:35;;;;;;;20.15;12.02;;;11.40;99.90;;;;;;5060008;28;20206;-82
2020/12/23 05:51:02;;;;;;;17.45;10.15;;;11.40;99.90;;;;;;5059162;28;20233;-82
2020/12/23 05:53:30;;;;;;;16.50;9.32;;;11.40;99.90;;;;;;5059113;28;20202;-83
2020/12/23 05:55:56;;;;;;;13.80;8.85;;;11.40;99.90;;;;;;5059798;28;20229;-82
2020/12/23 05:58:24;;;;;;;14.25;10.30;;;11.40;99.90;;;;;;5059771;28;20205;-82
2020/12/23 06:00:52;;;;;;;12.80;8.60;;;11.40;99.90;;;;;;5059812;28;20265;-82
2020/12/23 06:03:22;;;;;;;18.20;10.13;;;11.40;99.90;;;;;;5063322;28;20205;-81
2020/12/23 06:05:58;;;;;;;15.77;8.93;;;11.40;99.90;;;;;;5062375;28;20200;-82
2020/12/23 06:08:30;;;;;;;18.67;9.40;;;11.40;99.90;;;;;;5059651;28;20568;-82
2020/12/23 06:11:26;;;;;;;12.20;8.73;;;11.40;99.90;;;;;;5059927;28;20183;-82
2020/12/23 06:14:19;;;;;;;15.38;8.65;;;11.40;99.90;;;;;;5059945;28;20183;-82
2020/12/23 06:16:51;;;;;;;12.98;8.60;;;11.40;99.90;;;;;;5057633;28;20203;-83
2020/12/23 06:19:26;;;;;;;18.35;8.30;;;11.30;99.90;;;;;;5050773;28;20229;-81
2020/12/23 06:21:54;;;;;;;12.55;7.85;;;11.40;99.90;;;;;;5059262;28;20198;-83
2020/12/23 06:24:21;;;;;;;19.52;9.13;;;11.40;99.90;;;;;;5059523;28;20212;-81
2020/12/23 06:26:50;;;;;;;17.35;9.02;;;11.40;99.90;;;;;;5046466;28;20253;-82
2020/12/23 06:29:18;;;;;;;13.68;8.50;;;11.40;99.90;;;;;;5044357;28;20221;-83
2020/12/23 06:31:46;;;;;;;14.35;8.70;;;11.30;99.90;;;;;;5058370;28;20193;-82
2020/12/23 06:34:15;;;;;;;13.30;8.07;;;11.40;99.90;;;;;;5059529;28;20202;-83
2020/12/23 06:36:42;;;;;;;10.48;7.85;;;11.40;99.90;;;;;;5058959;28;20305;-82
2020/12/23 06:39:40;;;;;;;9.27;7.03;;;11.40;99.90;;;;;;5057233;28;20223;-83
2020/12/23 06:42:29;;;;;;;13.00;9.52;;;11.50;99.90;;;;;;5051969;28;20211;-81
2020/12/23 06:45:00;;;;;;;11.68;8.63;;;11.50;99.90;;;;;;5057002;28;20186;-82
2020/12/23 06:47:28;;;;;;;14.63;9.73;;;11.40;99.90;;;;;;5056590;28;20183;-82
2020/12/23 06:49:55;;;;;;;13.13;9.15;;;11.40;99.90;;;;;;5057420;28;20261;-81
2020/12/23 06:52:33;;;;;;;17.65;10.27;;;11.50;99.90;;;;;;5057020;28;20199;-83
2020/12/23 06:55:01;;;;;;;14.00;9.98;;;11.50;99.90;;;;;;5056979;28;20210;-82
2020/12/23 06:57:50;;;;;;;17.15;10.05;;;11.50;99.90;;;;;;5057887;28;20298;-82
2020/12/23 07:00:37;;;;;;;16.83;10.35;;;11.50;99.90;;;;;;5057467;28;20210;-83
2020/12/23 07:03:13;;;;;;;14.82;9.93;;;11.50;99.90;;;;;;5057624;28;20267;-82
2020/12/23 07:05:46;;;;;;;16.02;9.90;;;11.50;99.90;;;;;;5057139;28;20194;-81
2020/12/23 07:08:17;;;;;;;17.45;11.32;;;11.50;99.90;;;;;;5057590;28;20560;-82
2020/12/23 07:10:50;;;;;;;19.50;11.90;;;11.50;99.90;;;;;;5057170;28;20228;-83
2020/12/23 07:13:18;;;;;;;19.35;11.82;;;11.50;99.90;;;;;;5057707;28;20194;-82
2020/12/23 07:15:52;;;;;;;16.58;12.05;;;11.50;99.90;;;;;;5057306;28;20214;-81
2020/12/23 07:18:23;;;;;;;14.30;10.88;;;11.50;99.90;;;;;;5057322;28;20205;-81
2020/12/23 07:20:51;;;;;;;22.02;11.90;;;11.50;99.90;;;;;;5059260;28;20690;-81
2020/12/23 07:23:18;;;;;;;18.30;13.23;;;11.50;99.90;;;;;;5058556;28;20238;-81
2020/12/23 07:25:48;;;;;;;16.48;11.10;;;11.50;99.90;;;;;;5058836;28;20198;-80
2020/12/23 07:28:17;;;;;;;16.23;10.60;;;11.50;99.90;;;;;;5058747;28;20202;-81
2020/12/23 07:30:44;;;;;;;14.77;10.88;;;11.50;99.90;;;;;;5059106;28;20206;-80
2020/12/23 07:33:16;;;;;;;14.10;9.80;;;11.50;99.90;;;;;;5058677;28;20189;-81
2020/12/23 07:35:47;;;;;;;13.15;10.35;;;11.50;99.90;;;;;;5057532;28;20252;-79
2020/12/23 07:38:14;;;;;;;12.75;9.48;;;11.50;99.90;;;;;;5056491;28;20202;-79
2020/12/23 07:40:41;;;;;;;14.10;9.85;;;11.50;99.90;;;;;;5057983;28;20215;-80
2020/12/23 07:43:08;;;;;;;10.93;8.23;;;11.50;99.90;;;;;;5058686;28;20191;-80
2020/12/23 07:45:36;;;;;;;12.80;9.30;;;11.60;99.90;;;;;;5059288;28;20191;-81
2020/12/23 07:48:04;;;;;;;10.50;7.72;;;11.50;99.90;;;;;;5062362;28;20194;-80
2020/12/23 07:50:32;;;;;;;12.48;7.90;;;11.50;99.90;;;;;;5061698;28;20225;-80
2020/12/23 07:53:08;;;;;;;9.88;7.07;;;11.60;99.90;;;;;;5060077;28;20206;-81
2020/12/23 07:55:37;;;;;;;11.85;8.30;;;11.60;99.90;;;;;;5065261;28;20652;-82
2020/12/23 07:58:03;;;;;;;12.43;8.18;;;11.60;99.90;;;;;;5064630;28;20194;-82
2020/12/23 08:00:30;;;;;;;10.48;8.05;;;11.60;99.90;;;;;;5063246;28;20218;-82
2020/12/23 08:02:56;;;;;;;11.35;7.50;;;11.60;99.90;;;;;;5064098;28;20201;-82
2020/12/23 08:05:23;;;;;;;9.45;7.30;;;11.60;99.90;;;;;;5064265;28;20214;-82
2020/12/23 08:07:49;;;;;;;16.73;7.63;;;11.60;99.90;;;;;;5061949;28;20202;-81
2020/12/23 08:10:17;;;;;;;10.30;8.00;;;11.60;99.90;;;;;;5061430;28;20210;-80
2020/12/23 08:12:51;;;;;;;13.73;7.22;;;11.60;99.90;;;;;;5061250;28;20190;-81
2020/12/23 08:15:18;;;;;;;11.25;7.82;;;11.60;99.90;;;;;;5062466;28;20197;-80
2020/12/23 08:17:45;;;;;;;8.93;6.90;;;11.60;99.90;;;;;;5061791;28;20194;-83
2020/12/23 08:20:13;;;;;;;9.95;7.10;;;11.60;99.90;;;;;;5061575;28;20226;-81
2020/12/23 08:22:41;;;;;;;8.07;6.65;;;11.60;99.90;;;;;;5062118;28;20194;-81
2020/12/23 08:25:13;;;;;;;10.15;6.65;;;11.60;99.90;;;;;;5062057;28;20222;-81
2020/12/23 08:27:43;;;;;;;9.18;6.15;;;11.60;99.90;;;;;;5060413;28;20205;-82
2020/12/23 08:30:11;;;;;;;10.60;6.97;;;11.60;99.90;;;;;;5060434;28;20588;-81
2020/12/23 08:32:46;;;;;;;6.85;6.15;;;11.60;99.90;;;;;;5061410;28;20187;-81
2020/12/23 08:35:13;;;;;;;7.13;5.68;;;11.60;99.90;;;;;;5060128;28;20207;-81
2020/12/23 08:37:40;;;;;;;6.95;5.20;;;11.60;99.90;;;;;;5059677;28;20225;-80
2020/12/23 08:40:08;;;;;;;5.00;4.50;;;11.60;99.90;;;;;;5060243;28;20213;-80
2020/12/23 08:42:34;;;;;;;6.45;4.97;;;11.60;99.90;;;;;;5060746;28;20194;-80
2020/12/23 08:45:00;;;;;;;7.57;4.88;;;11.60;99.90;;;;;;5060589;28;20232;-81
2020/12/23 08:47:30;;;;;;;4.93;3.92;;;11.60;99.90;;;;;;5060197;28;20572;-82
2020/12/23 08:49:57;;;;;;;6.05;4.03;;;11.70;99.90;;;;;;5060804;28;20305;-81
2020/12/23 08:52:25;;;;;;;7.13;4.90;;;11.70;99.90;;;;;;5063471;28;20194;-81
2020/12/23 08:54:52;;;;;;;7.18;4.28;;;11.70;99.90;;;;;;5063860;28;20190;-82
2020/12/23 08:57:27;;;;;;;5.70;4.13;;;11.70;99.90;;;;;;5059109;28;20568;-82
2020/12/23 08:59:54;;;;;;;9.25;4.53;;;11.70;99.90;;;;;;5059405;28;20218;-82
2020/12/23 09:02:22;;;;;;;4.57;4.15;;;11.80;99.90;;;;;;5060036;28;20191;-81
2020/12/23 09:04:48;;;;;;;5.60;3.95;;;11.80;99.90;;;;;;5061124;28;20206;-81
2020/12/23 09:07:22;;;;;;;6.10;5.35;;;11.70;99.90;;;;;;5064276;28;20201;-81
2020/12/23 09:09:49;;;;;;;5.00;4.45;;;11.70;99.90;;;;;;5062289;28;20245;-79
2020/12/23 09:12:22;;;;;;;4.97;4.47;;;11.80;99.90;;;;;;5063767;28;20194;-82
2020/12/23 09:14:48;;;;;;;6.53;4.28;;;11.80;99.90;;;;;;5063633;28;20205;-81
2020/12/23 09:17:22;;;;;;;7.07;4.72;;;11.80;99.90;;;;;;5062440;28;20651;-81
2020/12/23 09:19:51;;;;;;;5.18;3.67;;;11.90;99.90;;;;;;5059948;28;20301;-81
2020/12/23 09:22:33;;;;;;;4.57;3.72;;;11.90;99.90;;;;;;5059601;28;20203;-82
2020/12/23 09:25:18;;;;;;;5.07;4.05;;;11.90;99.90;;;;;;5060905;28;20195;-80
2020/12/23 09:27:45;;;;;;;3.53;3.22;;;11.90;99.90;;;;;;5062363;28;20663;-80
2020/12/23 09:30:12;;;;;;;5.00;4.10;;;12.00;99.90;;;;;;5062128;28;20222;-80
2020/12/23 09:32:51;;;;;;;5.55;3.72;;;12.10;99.90;;;;;;5062257;28;20186;-80
2020/12/23 09:35:19;;;;;;;4.82;4.25;;;12.20;99.90;;;;;;5043196;28;20221;-79
2020/12/23 09:37:47;;;;;;;4.50;4.10;;;12.30;99.90;;;;;;5060463;28;20285;-80
2020/12/23 09:40:15;;;;;;;4.57;3.78;;;12.40;99.90;;;;;;5063862;28;20241;-78
2020/12/23 09:42:41;;;;;;;4.60;4.13;;;12.60;99.90;;;;;;5065859;28;20256;-80
2020/12/23 09:45:08;;;;;;;4.63;3.78;;;12.60;99.90;;;;;;5059365;28;20560;-80
2020/12/23 09:47:40;;;;;;;5.95;5.35;;;12.50;99.90;;;;;;5050622;28;20195;-79
2020/12/23 09:50:06;;;;;;;5.75;4.63;;;12.50;99.90;;;;;;5046729;28;20226;-81
2020/12/23 09:52:33;;;;;;;7.25;5.05;;;12.50;99.90;;;;;;5059547;28;20195;-79
2020/12/23 09:55:00;;;;;;;5.90;4.68;;;12.60;99.90;;;;;;5061398;28;20210;-80
2020/12/23 09:57:26;;;;;;;4.68;4.05;;;12.50;99.90;;;;;;5062399;28;20260;-80
2020/12/23 09:59:52;;;;;;;5.93;3.53;;;12.40;99.90;;;;;;5064720;28;20217;-81
2020/12/23 10:02:22;;;;;;;6.90;4.63;;;12.50;99.90;;;;;;5066254;28;20198;-81
2020/12/23 10:04:48;;;;;;;6.47;3.60;;;12.50;99.90;;;;;;5068118;28;20198;-80
2020/12/23 10:07:14;;;;;;;3.63;3.35;;;12.50;99.90;;;;;;5065353;28;20194;-81
2020/12/23 10:09:41;;;;;;;8.18;3.45;;;12.50;99.90;;;;;;5063734;28;20214;-78
2020/12/23 10:12:08;;;;;;;4.85;3.78;;;12.50;99.90;;;;;;5064366;28;20198;-78
2020/12/23 10:14:34;;;;;;;3.20;2.88;;;12.50;99.90;;;;;;5064615;28;20195;-79
2020/12/23 10:17:00;;;;;;;3.28;3.08;;;12.50;99.90;;;;;;5065399;28;20225;-79
2020/12/23 10:19:26;;;;;;;3.33;3.05;;;12.40;99.90;;;;;;5064973;28;20219;-82
2020/12/23 10:21:52;;;;;;;8.52;2.97;;;12.40;99.90;;;;;;5065127;28;20195;-80
2020/12/23 10:24:19;;;;;;;4.32;3.83;;;12.40;99.90;;;;;;5063627;28;20205;-81
2020/12/23 10:26:50;;;;;;;9.07;2.60;;;12.40;99.90;;;;;;5062741;28;20273;-81
2020/12/23 10:29:17;;;;;;;3.85;3.33;;;12.30;99.90;;;;;;5064523;28;20703;-80
2020/12/23 10:31:43;;;;;;;2.58;2.38;;;12.40;99.90;;;;;;5045213;28;20187;-79
2020/12/23 10:34:10;;;;;;;3.03;2.80;;;12.40;99.90;;;;;;5064456;28;20194;-80
2020/12/23 10:36:36;;;;;;;4.00;2.90;;;12.40;99.90;;;;;;5065264;28;20232;-79
2020/12/23 10:39:03;;;;;;;4.55;3.13;;;12.50;99.90;;;;;;5066312;28;20221;-78
2020/12/23 10:41:30;;;;;;;3.13;2.47;;;12.50;99.90;;;;;;5064990;28;20199;-81
2020/12/23 10:43:56;;;;;;;4.30;3.20;;;12.50;99.90;;;;;;5066391;28;20226;-80
2020/12/23 10:46:23;;;;;;;3.50;2.65;;;12.60;99.90;;;;;;5067158;28;20217;-81
2020/12/23 10:48:51;;;;;;;3.63;2.55;;;12.60;99.90;;;;;;5067951;28;20224;-79
2020/12/23 10:51:17;;;;;;;2.97;2.45;;;12.60;99.90;;;;;;5066501;28;20190;-80
2020/12/23 10:53:43;;;;;;;4.20;2.92;;;12.60;99.90;;;;;;5066760;28;20194;-80
2020/12/23 10:56:10;;;;;;;2.63;2.15;;;12.60;99.90;;;;;;5066314;28;20210;-79
2020/12/23 10:58:36;;;;;;;4.60;2.80;;;12.70;99.90;;;;;;5067100;28;20205;-81
2020/12/23 11:01:05;;;;;;;2.85;1.80;;;12.70;99.90;;;;;;5067065;28;20260;-82
2020/12/23 11:03:32;;;;;;;3.38;2.65;;;12.70;99.90;;;;;;5067236;28;20222;-81
2020/12/23 11:05:58;;;;;;;2.38;2.10;;;12.60;99.90;;;;;;5067203;28;20320;-80
2020/12/23 11:08:25;;;;;;;4.38;2.63;;;12.60;99.90;;;;;;5066840;28;20221;-81
2020/12/23 11:10:51;;;;;;;2.95;2.05;;;12.60;99.90;;;;;;5065389;28;20558;-81
2020/12/23 11:13:17;;;;;;;2.17;1.75;;;12.60;99.90;;;;;;5064896;28;20202;-80
2020/12/23 11:15:44;;;;;;;1.85;1.67;;;12.60;99.90;;;;;;5064350;28;20213;-81
2020/12/23 11:18:10;;;;;;;2.05;1.60;;;12.60;99.90;;;;;;5067953;28;20292;-84
2020/12/23 11:20:37;;;;;;;1.73;1.63;;;12.70;99.90;;;;;;5068480;28;20293;-82
2020/12/23 11:23:03;;;;;;;2.33;1.75;;;12.60;99.90;;;;;;5068257;28;20198;-82
2020/12/23 11:25:30;;;;;;;2.13;1.75;;;12.60;99.90;;;;;;5068481;28;20504;-79
2020/12/23 11:27:56;;;;;;;2.35;1.30;;;12.60;99.90;;;;;;5068366;28;20195;-83
2020/12/23 11:30:23;;;;;;;1.65;1.30;;;12.70;99.90;;;;;;5068868;28;20225;-79
2020/12/23 11:32:49;;;;;;;1.30;1.20;;;12.70;99.90;;;;;;5069021;28;20202;-81
2020/12/23 11:35:15;;;;;;;1.98;1.55;;;12.70;99.90;;;;;;5069276;28;20277;-84
2020/12/23 11:37:42;;;;;;;1.25;1.15;;;12.60;99.90;;;;;;5067925;28;20222;-83
2020/12/23 11:40:09;;;;;;;3.50;2.05;;;12.60;99.90;;;;;;5068027;28;20230;-83
2020/12/23 11:42:41;;;;;;;2.33;1.20;;;12.60;99.90;;;;;;5068574;28;20202;-83
2020/12/23 11:45:08;;;;;;;1.70;1.60;;;12.60;99.90;;;;;;5068573;28;20195;-82
2020/12/23 11:47:34;;;;;;;2.35;1.77;;;12.50;99.90;;;;;;5068179;28;20202;-83
2020/12/23 11:50:01;;;;;;;2.70;1.40;;;12.50;99.90;;;;;;5067576;28;20301;-81
2020/12/23 11:52:27;;;;;;;1.33;1.20;;;12.50;99.90;;;;;;5066897;28;20286;-84
2020/12/23 11:54:54;;;;;;;2.10;1.60;;;12.50;99.90;;;;;;5067906;28;20195;-82
2020/12/23 11:57:20;;;;;;;1.70;1.60;;;12.40;99.90;;;;;;5067561;28;20215;-82
2020/12/23 11:59:47;;;;;;;1.50;1.40;;;12.40;99.90;;;;;;5067377;28;20228;-83
2020/12/23 12:02:13;;;;;;;3.05;1.73;;;12.40;99.90;;;;;;5068274;28;20199;-84
2020/12/23 12:04:39;;;;;;;2.13;1.80;;;12.40;99.90;;;;;;5068079;28;20214;-84
2020/12/23 12:07:05;;;;;;;1.67;1.58;;;12.30;99.90;;;;;;5068467;28;20213;-84
2020/12/23 12:09:32;;;;;;;2.08;1.95;;;12.30;99.90;;;;;;5068458;28;20230;-84
2020/12/23 12:11:59;;;;;;;3.10;2.20;;;12.20;99.90;;;;;;5069731;28;20195;-85
2020/12/23 12:14:25;;;;;;;3.70;1.95;;;12.20;99.90;;;;;;5067857;28;20329;-83
2020/12/23 12:16:51;;;;;;;3.20;2.97;;;12.00;99.90;;;;;;5066976;28;20233;-81
2020/12/23 12:19:18;;;;;;;2.95;2.72;;;12.00;99.90;;;;;;5067622;28;20237;-85
2020/12/23 12:21:44;;;;;;;3.17;2.50;;;12.00;99.90;;;;;;5065452;28;20229;-81
2020/12/23 12:24:10;;;;;;;5.10;3.15;;;11.90;99.90;;;;;;5064579;28;20201;-84
2020/12/23 12:26:37;;;;;;;5.05;3.90;;;11.90;99.90;;;;;;5064853;28;20187;-82
2020/12/23 12:29:06;;;;;;;3.40;3.08;;;11.90;99.90;;;;;;5066089;28;20251;-85
2020/12/23 12:31:32;;;;;;;3.88;3.40;;;11.90;99.90;;;;;;5065538;28;20214;-81
2020/12/23 12:33:58;;;;;;;3.80;3.05;;;11.80;99.90;;;;;;5069731;28;20284;-81
2020/12/23 12:36:26;;;;;;;3.25;2.30;;;11.80;99.90;;;;;;5067956;28;20271;-83
2020/12/23 12:38:52;;;;;;;2.78;2.20;;;11.80;99.90;;;;;;5070029;28;20213;-83